sensor_id;sensor_type;location;lat;lon;timestamp;P1;durP1;ratioP1;P2;durP2;ratioP2
3901;SDS011;1966;49.908;9.156;2022-09-12T00:04:12;11.13;;;8.20;;
3901;SDS011;1966;49.908;9.156;2022-09-12T00:09:13;16.27;;;9.77;;
3901;SDS011;1966;49.908;9.156;2022-09-12T00:14:13;15.50;;;9.70;;
3901;SDS011;1966;49.908;9.156;2022-09-12T00:19:13;11.33;;;8.60;;
3901;SDS011;1966;49.908;9.156;2022-09-12T00:24:14;14.33;;;9.63;;
3901;SDS011;1966;49.908;9.156;2022-09-12T00:29:13;13.37;;;9.37;;
3901;SDS011;1966;49.908;9.156;2022-09-12T00:34:13;11.53;;;8.90;;
3901;SDS011;1966;49.908;9.156;2022-09-12T00:39:15;11.23;;;8.47;;
3901;SDS011;1966;49.908;9.156;2022-09-12T00:49:34;17.30;;;11.13;;
3901;SDS011;1966;49.908;9.156;2022-09-12T00:54:40;17.00;;;11.40;;
3901;SDS011;1966;49.908;9.156;2022-09-12T00:59:42;18.47;;;9.83;;
3901;SDS011;1966;49.908;9.156;2022-09-12T01:04:42;15.90;;;9.87;;
3901;SDS011;1966;49.908;9.156;2022-09-12T01:09:43;17.83;;;10.47;;
3901;SDS011;1966;49.908;9.156;2022-09-12T01:14:42;13.20;;;8.80;;
3901;SDS011;1966;49.908;9.156;2022-09-12T01:25:02;11.23;;;8.47;;
3901;SDS011;1966;49.908;9.156;2022-09-12T01:30:15;13.37;;;9.20;;
3901;SDS011;1966;49.908;9.156;2022-09-12T01:35:17;12.47;;;9.23;;
3901;SDS011;1966;49.908;9.156;2022-09-12T01:40:19;13.33;;;9.20;;
3901;SDS011;1966;49.908;9.156;2022-09-12T01:45:23;13.30;;;8.63;;
3901;SDS011;1966;49.908;9.156;2022-09-12T01:50:26;13.57;;;8.33;;
3901;SDS011;1966;49.908;9.156;2022-09-12T01:55:26;11.77;;;8.73;;
3901;SDS011;1966;49.908;9.156;2022-09-12T02:00:28;14.17;;;9.37;;
3901;SDS011;1966;49.908;9.156;2022-09-12T02:05:30;14.37;;;9.17;;
3901;SDS011;1966;49.908;9.156;2022-09-12T02:10:31;12.77;;;8.70;;
3901;SDS011;1966;49.908;9.156;2022-09-12T02:15:33;12.07;;;8.73;;
3901;SDS011;1966;49.908;9.156;2022-09-12T02:20:35;12.87;;;8.63;;
3901;SDS011;1966;49.908;9.156;2022-09-12T02:25:36;12.63;;;9.17;;
3901;SDS011;1966;49.908;9.156;2022-09-12T02:30:38;13.90;;;9.20;;
3901;SDS011;1966;49.908;9.156;2022-09-12T02:35:41;12.20;;;8.60;;
3901;SDS011;1966;49.908;9.156;2022-09-12T02:40:44;16.70;;;10.00;;
3901;SDS011;1966;49.908;9.156;2022-09-12T02:45:45;11.57;;;8.60;;
3901;SDS011;1966;49.908;9.156;2022-09-12T02:50:44;16.90;;;11.50;;
3901;SDS011;1966;49.908;9.156;2022-09-12T02:55:44;17.47;;;12.47;;
3901;SDS011;1966;49.908;9.156;2022-09-12T03:00:47;22.30;;;13.40;;
3901;SDS011;1966;49.908;9.156;2022-09-12T03:05:52;19.43;;;12.77;;
3901;SDS011;1966;49.908;9.156;2022-09-12T03:11:07;14.90;;;10.50;;
3901;SDS011;1966;49.908;9.156;2022-09-12T03:16:10;17.50;;;10.43;;
3901;SDS011;1966;49.908;9.156;2022-09-12T03:21:11;17.00;;;11.93;;
3901;SDS011;1966;49.908;9.156;2022-09-12T03:26:15;20.13;;;13.07;;
3901;SDS011;1966;49.908;9.156;2022-09-12T03:31:17;18.93;;;10.97;;
3901;SDS011;1966;49.908;9.156;2022-09-12T03:36:18;14.20;;;10.07;;
3901;SDS011;1966;49.908;9.156;2022-09-12T03:41:18;12.40;;;9.00;;
3901;SDS011;1966;49.908;9.156;2022-09-12T03:46:18;12.37;;;9.10;;
3901;SDS011;1966;49.908;9.156;2022-09-12T03:51:18;15.83;;;9.53;;
3901;SDS011;1966;49.908;9.156;2022-09-12T03:56:17;12.50;;;9.10;;
3901;SDS011;1966;49.908;9.156;2022-09-12T04:01:18;13.57;;;9.63;;
3901;SDS011;1966;49.908;9.156;2022-09-12T04:06:19;13.20;;;9.17;;
3901;SDS011;1966;49.908;9.156;2022-09-12T04:11:19;17.53;;;10.20;;
3901;SDS011;1966;49.908;9.156;2022-09-12T04:16:20;14.60;;;9.90;;
3901;SDS011;1966;49.908;9.156;2022-09-12T04:21:20;13.60;;;9.77;;
3901;SDS011;1966;49.908;9.156;2022-09-12T04:26:19;11.63;;;8.63;;
3901;SDS011;1966;49.908;9.156;2022-09-12T04:31:20;17.10;;;8.90;;
3901;SDS011;1966;49.908;9.156;2022-09-12T04:36:20;13.87;;;9.60;;
3901;SDS011;1966;49.908;9.156;2022-09-12T04:41:21;12.30;;;8.70;;
3901;SDS011;1966;49.908;9.156;2022-09-12T04:46:22;13.40;;;9.30;;
3901;SDS011;1966;49.908;9.156;2022-09-12T04:51:22;14.00;;;9.10;;
3901;SDS011;1966;49.908;9.156;2022-09-12T04:56:23;12.97;;;9.60;;
3901;SDS011;1966;49.908;9.156;2022-09-12T05:01:24;13.10;;;9.07;;
3901;SDS011;1966;49.908;9.156;2022-09-12T05:06:24;15.20;;;9.63;;
3901;SDS011;1966;49.908;9.156;2022-09-12T05:11:25;13.10;;;9.27;;
3901;SDS011;1966;49.908;9.156;2022-09-12T05:16:26;12.60;;;9.37;;
3901;SDS011;1966;49.908;9.156;2022-09-12T05:21:26;15.10;;;10.20;;
3901;SDS011;1966;49.908;9.156;2022-09-12T05:26:26;12.80;;;9.07;;
3901;SDS011;1966;49.908;9.156;2022-09-12T05:31:26;14.77;;;10.00;;
3901;SDS011;1966;49.908;9.156;2022-09-12T05:36:26;17.50;;;11.90;;
3901;SDS011;1966;49.908;9.156;2022-09-12T05:41:26;21.23;;;12.43;;
3901;SDS011;1966;49.908;9.156;2022-09-12T05:46:29;30.43;;;12.73;;
3901;SDS011;1966;49.908;9.156;2022-09-12T05:51:30;33.53;;;13.57;;
3901;SDS011;1966;49.908;9.156;2022-09-12T05:56:30;58.03;;;14.40;;
3901;SDS011;1966;49.908;9.156;2022-09-12T06:01:32;66.23;;;13.87;;
3901;SDS011;1966;49.908;9.156;2022-09-12T06:06:34;33.43;;;12.43;;
3901;SDS011;1966;49.908;9.156;2022-09-12T06:11:34;87.47;;;17.73;;
3901;SDS011;1966;49.908;9.156;2022-09-12T06:16:35;64.60;;;15.30;;
3901;SDS011;1966;49.908;9.156;2022-09-12T06:21:35;59.17;;;14.50;;
3901;SDS011;1966;49.908;9.156;2022-09-12T06:26:34;42.17;;;14.87;;
3901;SDS011;1966;49.908;9.156;2022-09-12T06:31:35;38.40;;;14.13;;
3901;SDS011;1966;49.908;9.156;2022-09-12T06:36:36;29.53;;;14.70;;
3901;SDS011;1966;49.908;9.156;2022-09-12T06:41:35;21.90;;;15.10;;
3901;SDS011;1966;49.908;9.156;2022-09-12T06:46:36;19.87;;;13.30;;
3901;SDS011;1966;49.908;9.156;2022-09-12T06:51:35;18.57;;;13.43;;
3901;SDS011;1966;49.908;9.156;2022-09-12T06:56:35;26.50;;;13.60;;
3901;SDS011;1966;49.908;9.156;2022-09-12T07:01:34;15.90;;;11.27;;
3901;SDS011;1966;49.908;9.156;2022-09-12T07:06:36;12.80;;;9.70;;
3901;SDS011;1966;49.908;9.156;2022-09-12T07:11:36;12.57;;;10.50;;
3901;SDS011;1966;49.908;9.156;2022-09-12T07:16:35;14.20;;;9.63;;
3901;SDS011;1966;49.908;9.156;2022-09-12T07:21:36;11.90;;;8.53;;
3901;SDS011;1966;49.908;9.156;2022-09-12T07:26:37;11.50;;;8.70;;
3901;SDS011;1966;49.908;9.156;2022-09-12T07:31:37;13.93;;;10.90;;
3901;SDS011;1966;49.908;9.156;2022-09-12T07:36:37;15.40;;;10.80;;
3901;SDS011;1966;49.908;9.156;2022-09-12T07:41:36;16.23;;;11.47;;
3901;SDS011;1966;49.908;9.156;2022-09-12T07:46:36;14.53;;;10.87;;
3901;SDS011;1966;49.908;9.156;2022-09-12T07:51:38;18.13;;;12.90;;
3901;SDS011;1966;49.908;9.156;2022-09-12T07:56:38;17.93;;;10.93;;
3901;SDS011;1966;49.908;9.156;2022-09-12T08:01:37;13.30;;;10.13;;
3901;SDS011;1966;49.908;9.156;2022-09-12T08:06:39;11.23;;;9.17;;
3901;SDS011;1966;49.908;9.156;2022-09-12T08:11:39;12.10;;;8.70;;
3901;SDS011;1966;49.908;9.156;2022-09-12T08:16:38;12.07;;;8.57;;
3901;SDS011;1966;49.908;9.156;2022-09-12T08:21:37;8.33;;;7.40;;
3901;SDS011;1966;49.908;9.156;2022-09-12T08:26:38;10.50;;;7.70;;
3901;SDS011;1966;49.908;9.156;2022-09-12T08:31:38;8.93;;;8.03;;
3901;SDS011;1966;49.908;9.156;2022-09-12T08:36:38;8.73;;;7.40;;
3901;SDS011;1966;49.908;9.156;2022-09-12T08:41:39;8.30;;;7.50;;
3901;SDS011;1966;49.908;9.156;2022-09-12T08:46:41;8.80;;;7.80;;
3901;SDS011;1966;49.908;9.156;2022-09-12T08:51:42;12.90;;;7.30;;
3901;SDS011;1966;49.908;9.156;2022-09-12T08:56:42;8.90;;;6.60;;
3901;SDS011;1966;49.908;9.156;2022-09-12T09:01:43;8.23;;;6.70;;
3901;SDS011;1966;49.908;9.156;2022-09-12T09:06:48;8.07;;;6.87;;
3901;SDS011;1966;49.908;9.156;2022-09-12T09:11:55;7.33;;;6.60;;
3901;SDS011;1966;49.908;9.156;2022-09-12T09:16:57;7.57;;;6.83;;
3901;SDS011;1966;49.908;9.156;2022-09-12T09:21:58;9.63;;;7.30;;
3901;SDS011;1966;49.908;9.156;2022-09-12T09:27:00;8.33;;;7.53;;
3901;SDS011;1966;49.908;9.156;2022-09-12T09:32:02;7.97;;;7.17;;
3901;SDS011;1966;49.908;9.156;2022-09-12T09:37:07;7.97;;;6.80;;
3901;SDS011;1966;49.908;9.156;2022-09-12T09:42:16;6.83;;;6.17;;
3901;SDS011;1966;49.908;9.156;2022-09-12T09:47:16;8.20;;;7.20;;
3901;SDS011;1966;49.908;9.156;2022-09-12T09:52:16;6.87;;;6.20;;
3901;SDS011;1966;49.908;9.156;2022-09-12T10:02:34;6.60;;;6.00;;
3901;SDS011;1966;49.908;9.156;2022-09-12T10:07:33;9.73;;;6.83;;
3901;SDS011;1966;49.908;9.156;2022-09-12T10:12:33;6.30;;;5.70;;
3901;SDS011;1966;49.908;9.156;2022-09-12T10:17:41;7.93;;;6.00;;
3901;SDS011;1966;49.908;9.156;2022-09-12T10:22:41;6.40;;;5.90;;
3901;SDS011;1966;49.908;9.156;2022-09-12T10:27:50;6.00;;;5.43;;
3901;SDS011;1966;49.908;9.156;2022-09-12T10:32:51;5.40;;;4.90;;
3901;SDS011;1966;49.908;9.156;2022-09-12T10:37:51;5.73;;;5.13;;
3901;SDS011;1966;49.908;9.156;2022-09-12T10:42:52;5.53;;;5.03;;
3901;SDS011;1966;49.908;9.156;2022-09-12T10:47:53;5.03;;;4.53;;
3901;SDS011;1966;49.908;9.156;2022-09-12T10:52:53;5.50;;;4.53;;
3901;SDS011;1966;49.908;9.156;2022-09-12T10:57:54;4.80;;;4.40;;
3901;SDS011;1966;49.908;9.156;2022-09-12T11:03:01;6.00;;;5.33;;
3901;SDS011;1966;49.908;9.156;2022-09-12T11:08:07;5.10;;;4.60;;
3901;SDS011;1966;49.908;9.156;2022-09-12T11:13:13;4.80;;;4.40;;
3901;SDS011;1966;49.908;9.156;2022-09-12T11:18:22;5.23;;;4.73;;
3901;SDS011;1966;49.908;9.156;2022-09-12T11:23:27;5.20;;;4.70;;
3901;SDS011;1966;49.908;9.156;2022-09-12T11:28:31;4.60;;;4.20;;
3901;SDS011;1966;49.908;9.156;2022-09-12T11:33:39;5.37;;;4.80;;
3901;SDS011;1966;49.908;9.156;2022-09-12T11:38:54;4.80;;;4.40;;
3901;SDS011;1966;49.908;9.156;2022-09-12T11:43:59;5.00;;;4.23;;
3901;SDS011;1966;49.908;9.156;2022-09-12T11:49:03;5.00;;;4.60;;
3901;SDS011;1966;49.908;9.156;2022-09-12T11:54:05;4.57;;;4.10;;
3901;SDS011;1966;49.908;9.156;2022-09-12T11:59:08;4.37;;;4.00;;
3901;SDS011;1966;49.908;9.156;2022-09-12T12:04:11;4.67;;;4.27;;
3901;SDS011;1966;49.908;9.156;2022-09-12T12:09:13;5.07;;;4.20;;
3901;SDS011;1966;49.908;9.156;2022-09-12T12:14:13;4.07;;;3.60;;
3901;SDS011;1966;49.908;9.156;2022-09-12T12:19:32;4.28;;;3.97;;
3901;SDS011;1966;49.908;9.156;2022-09-12T12:24:32;3.70;;;3.40;;
3901;SDS011;1966;49.908;9.156;2022-09-12T12:29:35;4.30;;;3.90;;
3901;SDS011;1966;49.908;9.156;2022-09-12T12:34:37;3.70;;;3.50;;
3901;SDS011;1966;49.908;9.156;2022-09-12T12:44:52;3.10;;;2.90;;
3901;SDS011;1966;49.908;9.156;2022-09-12T12:49:54;3.78;;;3.35;;
3901;SDS011;1966;49.908;9.156;2022-09-12T12:54:55;3.75;;;3.45;;
3901;SDS011;1966;49.908;9.156;2022-09-12T12:59:56;3.75;;;3.45;;
3901;SDS011;1966;49.908;9.156;2022-09-12T13:04:58;3.47;;;3.25;;
3901;SDS011;1966;49.908;9.156;2022-09-12T13:09:58;3.05;;;2.85;;
3901;SDS011;1966;49.908;9.156;2022-09-12T13:14:58;3.28;;;3.10;;
3901;SDS011;1966;49.908;9.156;2022-09-12T13:20:03;3.15;;;2.95;;
3901;SDS011;1966;49.908;9.156;2022-09-12T13:25:15;3.50;;;3.30;;
3901;SDS011;1966;49.908;9.156;2022-09-12T13:30:16;3.25;;;3.05;;
3901;SDS011;1966;49.908;9.156;2022-09-12T13:35:20;2.92;;;2.72;;
3901;SDS011;1966;49.908;9.156;2022-09-12T13:40:28;3.58;;;3.38;;
3901;SDS011;1966;49.908;9.156;2022-09-12T13:45:32;3.03;;;2.83;;
3901;SDS011;1966;49.908;9.156;2022-09-12T13:50:38;3.28;;;3.15;;
3901;SDS011;1966;49.908;9.156;2022-09-12T13:55:39;3.22;;;2.92;;
3901;SDS011;1966;49.908;9.156;2022-09-12T14:00:39;3.28;;;2.97;;
3901;SDS011;1966;49.908;9.156;2022-09-12T14:05:40;2.70;;;2.60;;
3901;SDS011;1966;49.908;9.156;2022-09-12T14:10:42;3.00;;;2.80;;
3901;SDS011;1966;49.908;9.156;2022-09-12T14:15:43;3.00;;;2.80;;
3901;SDS011;1966;49.908;9.156;2022-09-12T14:20:44;3.10;;;2.88;;
3901;SDS011;1966;49.908;9.156;2022-09-12T14:25:44;3.45;;;3.03;;
3901;SDS011;1966;49.908;9.156;2022-09-12T14:30:56;3.42;;;3.22;;
3901;SDS011;1966;49.908;9.156;2022-09-12T14:36:07;3.22;;;3.03;;
3901;SDS011;1966;49.908;9.156;2022-09-12T14:41:08;2.58;;;2.47;;
3901;SDS011;1966;49.908;9.156;2022-09-12T14:46:13;3.45;;;3.15;;
3901;SDS011;1966;49.908;9.156;2022-09-12T14:51:17;3.45;;;3.15;;
3901;SDS011;1966;49.908;9.156;2022-09-12T14:56:19;3.10;;;2.90;;
3901;SDS011;1966;49.908;9.156;2022-09-12T15:01:23;3.17;;;2.97;;
3901;SDS011;1966;49.908;9.156;2022-09-12T15:06:25;2.80;;;2.60;;
3901;SDS011;1966;49.908;9.156;2022-09-12T15:11:25;3.13;;;2.83;;
3901;SDS011;1966;49.908;9.156;2022-09-12T15:16:25;2.60;;;2.50;;
3901;SDS011;1966;49.908;9.156;2022-09-12T15:21:26;3.00;;;2.80;;
3901;SDS011;1966;49.908;9.156;2022-09-12T15:26:26;3.00;;;2.80;;
3901;SDS011;1966;49.908;9.156;2022-09-12T15:31:28;3.15;;;2.95;;
3901;SDS011;1966;49.908;9.156;2022-09-12T15:36:29;3.30;;;3.10;;
3901;SDS011;1966;49.908;9.156;2022-09-12T15:41:30;2.80;;;2.70;;
3901;SDS011;1966;49.908;9.156;2022-09-12T15:46:29;3.00;;;2.80;;
3901;SDS011;1966;49.908;9.156;2022-09-12T15:51:30;2.90;;;2.70;;
3901;SDS011;1966;49.908;9.156;2022-09-12T15:56:30;3.13;;;2.78;;
3901;SDS011;1966;49.908;9.156;2022-09-12T16:01:29;3.08;;;2.88;;
3901;SDS011;1966;49.908;9.156;2022-09-12T16:06:28;3.17;;;2.88;;
3901;SDS011;1966;49.908;9.156;2022-09-12T16:11:32;2.88;;;2.78;;
3901;SDS011;1966;49.908;9.156;2022-09-12T16:16:31;2.63;;;2.50;;
3901;SDS011;1966;49.908;9.156;2022-09-12T16:21:30;2.58;;;2.47;;
3901;SDS011;1966;49.908;9.156;2022-09-12T16:26:31;3.08;;;2.85;;
3901;SDS011;1966;49.908;9.156;2022-09-12T16:31:31;3.20;;;3.00;;
3901;SDS011;1966;49.908;9.156;2022-09-12T16:36:30;6.85;;;2.85;;
3901;SDS011;1966;49.908;9.156;2022-09-12T16:41:29;3.30;;;3.00;;
3901;SDS011;1966;49.908;9.156;2022-09-12T16:46:30;3.80;;;3.50;;
3901;SDS011;1966;49.908;9.156;2022-09-12T16:51:30;4.40;;;4.00;;
3901;SDS011;1966;49.908;9.156;2022-09-12T16:56:30;4.40;;;4.03;;
3901;SDS011;1966;49.908;9.156;2022-09-12T17:01:30;4.00;;;3.70;;
3901;SDS011;1966;49.908;9.156;2022-09-12T17:06:31;4.57;;;4.10;;
3901;SDS011;1966;49.908;9.156;2022-09-12T17:11:31;4.00;;;3.70;;
3901;SDS011;1966;49.908;9.156;2022-09-12T17:16:32;15.90;;;12.57;;
3901;SDS011;1966;49.908;9.156;2022-09-12T17:21:32;12.20;;;10.10;;
3901;SDS011;1966;49.908;9.156;2022-09-12T17:26:32;9.60;;;8.63;;
3901;SDS011;1966;49.908;9.156;2022-09-12T17:31:32;12.60;;;10.60;;
3901;SDS011;1966;49.908;9.156;2022-09-12T17:36:32;11.20;;;9.97;;
3901;SDS011;1966;49.908;9.156;2022-09-12T17:41:31;6.43;;;5.77;;
3901;SDS011;1966;49.908;9.156;2022-09-12T17:46:31;6.77;;;5.77;;
3901;SDS011;1966;49.908;9.156;2022-09-12T17:51:33;6.50;;;5.83;;
3901;SDS011;1966;49.908;9.156;2022-09-12T17:56:33;5.73;;;5.23;;
3901;SDS011;1966;49.908;9.156;2022-09-12T18:01:34;7.97;;;5.57;;
3901;SDS011;1966;49.908;9.156;2022-09-12T18:06:52;6.67;;;6.00;;
3901;SDS011;1966;49.908;9.156;2022-09-12T18:11:51;6.93;;;5.70;;
3901;SDS011;1966;49.908;9.156;2022-09-12T18:16:51;7.40;;;6.07;;
3901;SDS011;1966;49.908;9.156;2022-09-12T18:21:51;8.47;;;6.00;;
3901;SDS011;1966;49.908;9.156;2022-09-12T18:26:51;6.93;;;5.60;;
3901;SDS011;1966;49.908;9.156;2022-09-12T18:31:50;5.83;;;5.30;;
3901;SDS011;1966;49.908;9.156;2022-09-12T18:36:49;6.40;;;5.30;;
3901;SDS011;1966;49.908;9.156;2022-09-12T18:41:52;8.07;;;5.37;;
3901;SDS011;1966;49.908;9.156;2022-09-12T18:46:51;5.23;;;4.73;;
3901;SDS011;1966;49.908;9.156;2022-09-12T18:51:51;8.10;;;5.03;;
3901;SDS011;1966;49.908;9.156;2022-09-12T18:56:50;8.50;;;5.70;;
3901;SDS011;1966;49.908;9.156;2022-09-12T19:01:51;7.00;;;5.43;;
3901;SDS011;1966;49.908;9.156;2022-09-12T19:06:50;6.60;;;5.90;;
3901;SDS011;1966;49.908;9.156;2022-09-12T19:11:49;10.13;;;4.90;;
3901;SDS011;1966;49.908;9.156;2022-09-12T19:16:51;5.47;;;4.97;;
3901;SDS011;1966;49.908;9.156;2022-09-12T19:21:50;6.30;;;5.50;;
3901;SDS011;1966;49.908;9.156;2022-09-12T19:26:49;6.90;;;5.30;;
3901;SDS011;1966;49.908;9.156;2022-09-12T19:31:51;6.17;;;5.57;;
3901;SDS011;1966;49.908;9.156;2022-09-12T19:36:50;6.43;;;5.80;;
3901;SDS011;1966;49.908;9.156;2022-09-12T19:41:51;7.93;;;6.67;;
3901;SDS011;1966;49.908;9.156;2022-09-12T19:46:52;6.60;;;5.67;;
3901;SDS011;1966;49.908;9.156;2022-09-12T19:51:51;7.90;;;6.37;;
3901;SDS011;1966;49.908;9.156;2022-09-12T19:56:50;6.63;;;5.73;;
3901;SDS011;1966;49.908;9.156;2022-09-12T20:01:51;6.40;;;5.80;;
3901;SDS011;1966;49.908;9.156;2022-09-12T20:06:50;6.53;;;5.83;;
3901;SDS011;1966;49.908;9.156;2022-09-12T20:11:49;10.03;;;6.73;;
3901;SDS011;1966;49.908;9.156;2022-09-12T20:16:49;7.97;;;6.90;;
3901;SDS011;1966;49.908;9.156;2022-09-12T20:21:49;8.20;;;6.50;;
3901;SDS011;1966;49.908;9.156;2022-09-12T20:26:49;7.27;;;6.57;;
3901;SDS011;1966;49.908;9.156;2022-09-12T20:31:48;7.80;;;6.27;;
3901;SDS011;1966;49.908;9.156;2022-09-12T20:36:49;7.67;;;6.90;;
3901;SDS011;1966;49.908;9.156;2022-09-12T20:41:48;6.43;;;5.83;;
3901;SDS011;1966;49.908;9.156;2022-09-12T20:46:48;7.33;;;6.57;;
3901;SDS011;1966;49.908;9.156;2022-09-12T20:51:47;11.60;;;7.97;;
3901;SDS011;1966;49.908;9.156;2022-09-12T20:56:48;13.70;;;8.07;;
3901;SDS011;1966;49.908;9.156;2022-09-12T21:01:47;8.50;;;7.00;;
3901;SDS011;1966;49.908;9.156;2022-09-12T21:06:47;10.07;;;7.00;;
3901;SDS011;1966;49.908;9.156;2022-09-12T21:11:46;8.40;;;7.47;;
3901;SDS011;1966;49.908;9.156;2022-09-12T21:16:47;8.53;;;7.63;;
3901;SDS011;1966;49.908;9.156;2022-09-12T21:21:46;9.83;;;8.80;;
3901;SDS011;1966;49.908;9.156;2022-09-12T21:26:45;9.80;;;8.30;;
3901;SDS011;1966;49.908;9.156;2022-09-12T21:31:44;9.37;;;7.70;;
3901;SDS011;1966;49.908;9.156;2022-09-12T21:36:45;9.13;;;7.50;;
3901;SDS011;1966;49.908;9.156;2022-09-12T21:41:44;9.33;;;7.40;;
3901;SDS011;1966;49.908;9.156;2022-09-12T21:46:44;8.33;;;7.00;;
3901;SDS011;1966;49.908;9.156;2022-09-12T21:51:43;8.80;;;7.90;;
3901;SDS011;1966;49.908;9.156;2022-09-12T21:56:44;7.93;;;7.13;;
3901;SDS011;1966;49.908;9.156;2022-09-12T22:01:43;8.93;;;7.30;;
3901;SDS011;1966;49.908;9.156;2022-09-12T22:06:42;7.83;;;7.03;;
3901;SDS011;1966;49.908;9.156;2022-09-12T22:11:41;8.47;;;7.20;;
3901;SDS011;1966;49.908;9.156;2022-09-12T22:16:42;9.50;;;8.30;;
3901;SDS011;1966;49.908;9.156;2022-09-12T22:21:42;8.47;;;7.57;;
3901;SDS011;1966;49.908;9.156;2022-09-12T22:27:02;9.13;;;7.93;;
3901;SDS011;1966;49.908;9.156;2022-09-12T22:32:03;15.67;;;8.90;;
3901;SDS011;1966;49.908;9.156;2022-09-12T22:37:03;11.87;;;7.70;;
3901;SDS011;1966;49.908;9.156;2022-09-12T22:42:02;12.23;;;8.53;;
3901;SDS011;1966;49.908;9.156;2022-09-12T22:47:01;9.23;;;7.63;;
3901;SDS011;1966;49.908;9.156;2022-09-12T22:52:02;10.47;;;7.43;;
3901;SDS011;1966;49.908;9.156;2022-09-12T22:57:02;8.13;;;7.33;;
3901;SDS011;1966;49.908;9.156;2022-09-12T23:02:01;8.47;;;7.50;;
3901;SDS011;1966;49.908;9.156;2022-09-12T23:07:00;8.80;;;7.53;;
3901;SDS011;1966;49.908;9.156;2022-09-12T23:12:01;8.93;;;7.10;;
3901;SDS011;1966;49.908;9.156;2022-09-12T23:17:01;7.83;;;6.80;;
3901;SDS011;1966;49.908;9.156;2022-09-12T23:22:00;9.90;;;7.63;;
3901;SDS011;1966;49.908;9.156;2022-09-12T23:27:01;9.87;;;7.77;;
3901;SDS011;1966;49.908;9.156;2022-09-12T23:32:01;8.67;;;7.77;;
3901;SDS011;1966;49.908;9.156;2022-09-12T23:37:00;11.53;;;9.33;;
3901;SDS011;1966;49.908;9.156;2022-09-12T23:42:01;11.60;;;8.10;;
3901;SDS011;1966;49.908;9.156;2022-09-12T23:47:00;9.97;;;8.30;;
3901;SDS011;1966;49.908;9.156;2022-09-12T23:52:00;9.57;;;7.70;;
3901;SDS011;1966;49.908;9.156;2022-09-12T23:56:59;10.03;;;8.10;;
